createdAt,value
2017-12-29T00:01:48.362Z,9.48
2017-12-29T00:04:15.261Z,8.10
2017-12-29T00:06:42.877Z,8.95
2017-12-29T00:09:09.764Z,10.82
2017-12-29T00:11:36.650Z,10.75
2017-12-29T00:14:03.554Z,10.43
2017-12-29T00:16:30.387Z,10.98
2017-12-29T00:18:57.218Z,11.50
2017-12-29T00:21:24.138Z,12.52
2017-12-29T00:23:50.994Z,13.10
2017-12-29T00:26:17.890Z,11.63
2017-12-29T00:28:44.728Z,11.60
2017-12-29T00:31:12.330Z,11.05
2017-12-29T00:33:39.194Z,11.75
2017-12-29T00:36:06.080Z,12.30
2017-12-29T00:38:33.693Z,8.77
2017-12-29T00:41:00.554Z,6.05
2017-12-29T00:43:27.454Z,2.28
2017-12-29T00:45:55.081Z,1.45
2017-12-29T00:48:22.706Z,2.22
2017-12-29T00:50:49.564Z,1.45
2017-12-29T00:53:16.458Z,0.90
2017-12-29T00:55:43.278Z,0.77
2017-12-29T00:58:10.862Z,1.00
2017-12-29T01:00:38.454Z,0.50
2017-12-29T01:03:05.281Z,0.60
2017-12-29T01:05:32.151Z,0.62
2017-12-29T01:07:59.008Z,0.80
2017-12-29T01:10:26.638Z,0.70
2017-12-29T01:12:53.538Z,0.85
2017-12-29T01:15:21.122Z,0.73
2017-12-29T01:17:47.997Z,0.65
2017-12-29T01:20:15.114Z,0.80
2017-12-29T01:22:42.783Z,0.90
2017-12-29T01:25:09.702Z,0.90
2017-12-29T01:27:37.298Z,0.80
2017-12-29T01:30:04.146Z,0.70
2017-12-29T01:32:31.026Z,0.85
2017-12-29T01:34:58.625Z,0.80
2017-12-29T01:37:25.550Z,0.60
2017-12-29T01:39:52.461Z,0.80
2017-12-29T01:42:20.066Z,0.60
2017-12-29T01:44:46.922Z,2.62
2017-12-29T01:47:13.854Z,0.70
2017-12-29T01:49:40.804Z,1.00
2017-12-29T01:52:08.397Z,0.75
2017-12-29T01:54:35.250Z,1.08
2017-12-29T01:57:02.137Z,0.93
2017-12-29T01:59:29.070Z,0.93
2017-12-29T02:01:55.923Z,0.90
2017-12-29T02:04:23.394Z,0.90
2017-12-29T02:06:50.323Z,0.80
2017-12-29T02:09:17.904Z,0.70
2017-12-29T02:11:44.781Z,0.80
2017-12-29T02:14:11.671Z,0.98
2017-12-29T02:16:38.513Z,1.02
2017-12-29T02:19:06.077Z,0.90
2017-12-29T02:21:33.174Z,0.90
2017-12-29T02:24:00.167Z,0.90
2017-12-29T02:26:27.746Z,1.15
2017-12-29T02:28:54.629Z,0.80
2017-12-29T02:31:21.488Z,1.00
2017-12-29T02:33:48.358Z,0.88
2017-12-29T02:36:15.238Z,1.00
2017-12-29T02:38:42.126Z,1.10
2017-12-29T02:41:08.994Z,1.00
2017-12-29T02:43:35.877Z,0.98
2017-12-29T02:46:02.738Z,1.05
2017-12-29T02:48:29.609Z,0.80
2017-12-29T02:50:57.174Z,0.75
2017-12-29T02:53:24.798Z,1.00
2017-12-29T02:55:51.662Z,0.65
2017-12-29T02:58:18.513Z,0.90
2017-12-29T03:00:46.134Z,0.70
2017-12-29T03:03:13.021Z,0.85
2017-12-29T03:05:40.605Z,0.80
2017-12-29T03:08:07.489Z,0.98
2017-12-29T03:10:34.354Z,1.05
2017-12-29T03:13:01.985Z,1.10
2017-12-29T03:15:28.809Z,1.30
2017-12-29T03:17:55.674Z,1.08
2017-12-29T03:20:22.570Z,1.50
2017-12-29T03:22:49.443Z,1.12
2017-12-29T03:25:16.794Z,0.70
2017-12-29T03:27:43.685Z,0.80
2017-12-29T03:30:11.339Z,0.85
2017-12-29T03:32:38.982Z,0.88
2017-12-29T03:35:05.812Z,0.70
2017-12-29T03:37:32.654Z,1.00
2017-12-29T03:39:59.494Z,1.20
2017-12-29T03:42:26.402Z,0.70
2017-12-29T03:44:54.005Z,1.10
2017-12-29T03:47:20.838Z,1.05
2017-12-29T03:49:47.702Z,1.25
2017-12-29T03:52:14.586Z,1.17
2017-12-29T03:54:42.183Z,1.30
2017-12-29T03:57:09.261Z,0.75
2017-12-29T03:59:36.086Z,0.93
2017-12-29T04:02:02.962Z,0.85
2017-12-29T04:04:29.774Z,1.00
2017-12-29T04:06:56.641Z,1.35
2017-12-29T04:09:24.254Z,1.00
2017-12-29T04:11:51.867Z,1.27
2017-12-29T04:14:18.710Z,1.17
2017-12-29T04:16:45.555Z,1.00
2017-12-29T04:19:13.286Z,1.60
2017-12-29T04:21:40.137Z,1.25
2017-12-29T04:24:07.014Z,1.15
2017-12-29T04:26:33.946Z,1.12
2017-12-29T04:29:00.842Z,1.15
2017-12-29T04:31:27.689Z,1.30
2017-12-29T04:33:54.530Z,1.55
2017-12-29T04:36:21.402Z,1.05
2017-12-29T04:38:48.422Z,1.10
2017-12-29T04:41:15.414Z,1.15
2017-12-29T04:43:42.297Z,1.30
2017-12-29T04:46:09.662Z,1.40
2017-12-29T04:48:36.666Z,1.50
2017-12-29T04:51:04.258Z,1.23
2017-12-29T04:53:31.821Z,1.02
2017-12-29T04:55:58.693Z,1.08
2017-12-29T04:58:25.565Z,1.70
2017-12-29T05:00:52.418Z,1.12
2017-12-29T05:03:19.561Z,1.40
2017-12-29T05:05:46.614Z,1.67
2017-12-29T05:08:13.546Z,1.73
2017-12-29T05:10:40.424Z,1.50
2017-12-29T05:13:08.059Z,1.33
2017-12-29T05:15:36.134Z,1.35
2017-12-29T05:18:03.817Z,1.00
2017-12-29T05:20:30.643Z,1.15
2017-12-29T05:22:58.394Z,1.55
2017-12-29T05:25:25.322Z,1.23
2017-12-29T05:27:52.355Z,1.20
2017-12-29T05:30:19.982Z,1.85
2017-12-29T05:32:47.821Z,1.62
2017-12-29T05:35:15.434Z,1.30
2017-12-29T05:37:42.282Z,1.92
2017-12-29T05:40:09.447Z,1.40
2017-12-29T05:42:37.225Z,2.08
2017-12-29T05:45:04.082Z,1.45
2017-12-29T05:47:31.730Z,1.50
2017-12-29T05:49:58.622Z,1.60
2017-12-29T05:52:25.512Z,1.62
2017-12-29T05:54:52.386Z,1.60
2017-12-29T05:57:19.979Z,1.25
2017-12-29T05:59:46.869Z,1.20
2017-12-29T06:02:13.778Z,1.05
2017-12-29T06:04:40.646Z,1.40
2017-12-29T06:07:07.497Z,1.48
2017-12-29T06:09:35.215Z,1.40
2017-12-29T06:12:15.779Z,2.20
2017-12-29T06:14:42.706Z,1.35
2017-12-29T06:21:05.375Z,1.50
2017-12-29T06:23:33.370Z,1.62
2017-12-29T06:26:00.269Z,3.00
2017-12-29T06:28:28.458Z,2.25
2017-12-29T06:30:57.077Z,1.20
2017-12-29T06:33:24.806Z,4.05
2017-12-29T06:35:52.604Z,2.15
2017-12-29T06:38:19.485Z,1.80
2017-12-29T06:50:13.840Z,2.10
2017-12-29T06:52:43.112Z,2.45
2017-12-29T06:55:10.078Z,2.30
2017-12-29T06:57:43.924Z,1.70
2017-12-29T07:03:04.284Z,1.50
2017-12-29T07:08:50.073Z,2.80
2017-12-29T07:11:19.594Z,3.92
2017-12-29T07:13:46.509Z,2.97
2017-12-29T07:18:48.667Z,6.87
2017-12-29T07:21:16.285Z,1.77
2017-12-29T07:23:43.166Z,2.08
2017-12-29T07:39:47.584Z,3.50
2017-12-29T07:42:21.446Z,2.62
2017-12-29T07:44:53.486Z,2.12
2017-12-29T07:47:20.382Z,1.42
2017-12-29T07:55:05.313Z,2.30
2017-12-29T07:57:38.733Z,2.35
2017-12-29T08:00:06.550Z,1.52
2017-12-29T08:02:45.071Z,1.75
2017-12-29T08:05:19.506Z,2.30
2017-12-29T08:07:46.443Z,1.48
2017-12-29T08:10:39.231Z,1.17
2017-12-29T08:24:14.381Z,1.50
2017-12-29T08:26:42.271Z,2.47
2017-12-29T08:29:09.221Z,1.50
2017-12-29T08:31:37.595Z,2.08
2017-12-29T08:37:37.345Z,2.40
2017-12-29T08:40:14.806Z,2.22
2017-12-29T08:42:46.344Z,1.85
2017-12-29T08:47:49.134Z,1.83
2017-12-29T08:55:47.181Z,2.25
2017-12-29T08:58:43.083Z,2.97
2017-12-29T09:01:11.399Z,1.42
2017-12-29T09:09:13.571Z,1.90
2017-12-29T09:11:47.704Z,1.95
2017-12-29T09:14:19.730Z,2.28
2017-12-29T09:16:50.842Z,2.30
2017-12-29T09:19:17.691Z,0.98
2017-12-29T09:22:12.562Z,2.22
2017-12-29T09:24:44.693Z,1.33
2017-12-29T09:27:15.291Z,1.58
2017-12-29T09:29:45.906Z,1.60
2017-12-29T09:32:13.612Z,1.60
2017-12-29T09:34:41.423Z,1.42
2017-12-29T09:37:10.430Z,0.90
2017-12-29T09:39:37.422Z,1.70
2017-12-29T09:42:05.042Z,2.37
2017-12-29T09:47:48.477Z,2.17
2017-12-29T09:50:18.954Z,2.40
2017-12-29T09:52:48.266Z,1.55
2017-12-29T09:55:15.259Z,2.20
2017-12-29T09:57:44.202Z,1.67
2017-12-29T10:00:13.392Z,1.00
2017-12-29T10:02:41.394Z,1.75
2017-12-29T10:05:09.078Z,0.70
2017-12-29T10:13:29.618Z,1.52
2017-12-29T10:15:59.812Z,2.50
2017-12-29T10:18:32.063Z,1.77
2017-12-29T10:21:01.882Z,1.80
2017-12-29T10:23:29.567Z,1.75
2017-12-29T10:26:01.294Z,2.22
2017-12-29T10:28:28.334Z,1.37
2017-12-29T10:30:55.227Z,0.87
2017-12-29T10:33:22.098Z,0.87
2017-12-29T10:35:48.957Z,1.47
2017-12-29T10:38:15.826Z,1.20
2017-12-29T10:40:43.437Z,0.80
2017-12-29T10:43:10.345Z,1.20
2017-12-29T10:45:37.221Z,1.20
2017-12-29T10:48:04.093Z,1.53
2017-12-29T10:50:30.950Z,2.20
2017-12-29T10:52:58.555Z,1.20
2017-12-29T10:55:25.438Z,1.23
2017-12-29T10:57:52.314Z,0.80
2017-12-29T11:00:19.225Z,1.27
2017-12-29T11:02:46.291Z,1.47
2017-12-29T11:05:13.956Z,1.63
2017-12-29T11:07:41.615Z,1.67
2017-12-29T11:10:08.566Z,1.50
2017-12-29T11:12:36.143Z,1.73
2017-12-29T11:15:03.777Z,1.10
2017-12-29T11:17:31.338Z,1.20
2017-12-29T11:19:58.942Z,1.03
2017-12-29T11:22:25.806Z,0.97
2017-12-29T11:24:52.706Z,1.37
2017-12-29T11:27:19.590Z,1.20
2017-12-29T11:29:46.474Z,1.10
2017-12-29T11:32:14.157Z,1.20
2017-12-29T11:34:40.974Z,1.23
2017-12-29T11:37:07.845Z,1.23
2017-12-29T11:39:34.710Z,0.90
2017-12-29T11:42:01.542Z,1.27
2017-12-29T11:44:29.121Z,1.23
2017-12-29T11:46:55.993Z,1.10
2017-12-29T11:49:22.882Z,1.10
2017-12-29T11:51:49.746Z,0.90
2017-12-29T11:54:16.602Z,1.23
2017-12-29T11:56:43.477Z,1.47
2017-12-29T11:59:11.083Z,1.10
2017-12-29T12:01:37.994Z,1.40
2017-12-29T12:04:04.849Z,1.30
2017-12-29T12:06:31.698Z,1.10
2017-12-29T12:08:58.558Z,1.40
2017-12-29T12:11:25.445Z,1.07
2017-12-29T12:13:52.322Z,0.97
2017-12-29T12:16:19.218Z,1.10
2017-12-29T12:18:46.103Z,1.57
2017-12-29T12:21:13.680Z,0.90
2017-12-29T12:23:40.529Z,0.97
2017-12-29T12:26:08.121Z,1.17
2017-12-29T12:28:34.986Z,1.20
2017-12-29T12:31:01.838Z,1.10
2017-12-29T12:33:29.442Z,1.27
2017-12-29T12:35:56.349Z,1.30
2017-12-29T12:38:23.945Z,1.50
2017-12-29T12:40:51.588Z,1.00
2017-12-29T12:43:19.153Z,1.40
2017-12-29T12:45:46.053Z,1.70
2017-12-29T12:48:12.942Z,1.13
2017-12-29T12:50:40.550Z,1.07
2017-12-29T12:53:07.436Z,1.13
2017-12-29T12:55:35.077Z,1.63
2017-12-29T12:58:02.718Z,1.30
2017-12-29T13:00:29.562Z,1.70
2017-12-29T13:02:56.454Z,2.10
2017-12-29T13:05:23.342Z,1.37
2017-12-29T13:07:50.198Z,1.17
2017-12-29T13:10:17.803Z,1.00
2017-12-29T13:12:44.706Z,1.40
2017-12-29T13:15:12.046Z,1.30
2017-12-29T13:17:39.150Z,1.37
2017-12-29T13:20:06.001Z,1.60
2017-12-29T13:22:33.005Z,1.50
2017-12-29T13:25:19.258Z,4.50
2017-12-29T13:27:48.961Z,1.00
2017-12-29T13:30:15.834Z,1.03
2017-12-29T13:32:42.687Z,1.40
2017-12-29T13:35:09.530Z,1.20
2017-12-29T13:37:36.838Z,1.50
2017-12-29T13:40:03.731Z,1.40
2017-12-29T13:42:30.662Z,1.70
2017-12-29T13:44:57.514Z,1.60
2017-12-29T13:47:24.392Z,1.17
2017-12-29T13:49:51.285Z,1.20
2017-12-29T13:52:18.162Z,1.20
2017-12-29T13:54:45.793Z,2.03
2017-12-29T13:57:12.658Z,1.10
2017-12-29T13:59:39.529Z,1.00
2017-12-29T14:02:06.434Z,1.47
2017-12-29T14:04:33.282Z,1.30
2017-12-29T14:07:00.121Z,1.40
2017-12-29T14:09:27.082Z,0.90
2017-12-29T14:11:54.721Z,1.03
2017-12-29T14:14:21.594Z,1.37
2017-12-29T14:16:49.185Z,0.90
2017-12-29T14:19:16.165Z,1.13
2017-12-29T14:21:43.022Z,0.90
2017-12-29T14:24:10.209Z,1.40
2017-12-29T14:26:37.178Z,1.60
2017-12-29T14:29:04.148Z,1.10
2017-12-29T14:31:30.986Z,1.10
2017-12-29T14:33:57.876Z,0.90
2017-12-29T14:36:25.498Z,0.80
2017-12-29T14:38:52.388Z,0.80
2017-12-29T14:41:19.262Z,1.23
2017-12-29T14:43:46.145Z,0.93
2017-12-29T14:46:13.002Z,1.35
2017-12-29T14:48:40.646Z,1.00
2017-12-29T14:51:07.694Z,1.30
2017-12-29T14:53:34.550Z,1.10
2017-12-29T14:56:02.173Z,1.87
2017-12-29T14:58:29.033Z,1.15
2017-12-29T15:00:55.902Z,1.27
2017-12-29T15:03:23.521Z,0.80
2017-12-29T15:05:50.381Z,1.33
2017-12-29T15:08:17.222Z,1.10
2017-12-29T15:10:44.876Z,1.25
2017-12-29T15:13:11.786Z,2.05
2017-12-29T15:15:38.613Z,1.70
2017-12-29T15:18:05.501Z,1.10
2017-12-29T15:20:32.346Z,1.70
2017-12-29T15:22:59.226Z,2.47
2017-12-29T15:25:26.913Z,1.40
2017-12-29T15:27:53.750Z,1.62
2017-12-29T15:30:20.642Z,1.98
2017-12-29T15:32:47.595Z,1.67
2017-12-29T15:35:14.459Z,2.05
2017-12-29T15:37:42.086Z,2.05
2017-12-29T15:40:08.973Z,4.15
2017-12-29T15:42:35.889Z,2.90
2017-12-29T15:45:03.490Z,2.60
2017-12-29T15:47:30.382Z,2.08
2017-12-29T15:49:57.757Z,2.35
2017-12-29T15:52:25.490Z,2.72
2017-12-29T15:54:52.402Z,2.00
2017-12-29T15:57:19.307Z,2.20
2017-12-29T15:59:46.981Z,6.28
2017-12-29T16:02:20.611Z,6.12
2017-12-29T16:04:47.513Z,5.82
2017-12-29T16:07:15.346Z,6.45
2017-12-29T16:09:42.360Z,7.15
2017-12-29T16:12:09.313Z,10.70
2017-12-29T16:14:36.187Z,14.07
2017-12-29T16:17:03.339Z,16.60
2017-12-29T16:19:30.374Z,18.77
2017-12-29T16:21:57.402Z,16.73
2017-12-29T16:24:24.450Z,18.60
2017-12-29T16:26:51.334Z,21.08
2017-12-29T16:29:19.785Z,17.95
2017-12-29T16:31:48.502Z,17.85
2017-12-29T16:34:16.162Z,15.32
2017-12-29T16:36:43.054Z,18.00
2017-12-29T16:39:10.927Z,18.52
2017-12-29T16:41:38.763Z,18.48
2017-12-29T16:44:05.755Z,23.52
2017-12-29T16:46:33.290Z,21.90
2017-12-29T16:49:02.361Z,21.67
2017-12-29T16:51:29.987Z,23.20
2017-12-29T16:53:56.933Z,21.70
2017-12-29T16:56:24.595Z,20.80
2017-12-29T16:58:51.480Z,17.87
2017-12-29T17:01:19.099Z,16.35
2017-12-29T17:03:46.010Z,15.98
2017-12-29T17:06:13.053Z,16.33
2017-12-29T17:08:39.925Z,17.35
2017-12-29T17:11:06.946Z,13.62
2017-12-29T17:13:33.882Z,10.48
2017-12-29T17:16:03.529Z,10.00
2017-12-29T17:18:30.395Z,10.70
2017-12-29T17:21:00.222Z,10.50
2017-12-29T17:23:30.446Z,13.85
2017-12-29T17:25:57.390Z,17.30
2017-12-29T17:28:24.402Z,21.83
2017-12-29T17:30:51.355Z,29.92
2017-12-29T17:33:19.176Z,25.83
2017-12-29T17:35:46.171Z,25.40
2017-12-29T17:38:13.065Z,18.30
2017-12-29T17:40:40.035Z,16.80
2017-12-29T17:43:07.141Z,15.07
2017-12-29T17:45:34.332Z,14.75
2017-12-29T17:48:01.257Z,12.73
2017-12-29T17:50:28.318Z,12.93
2017-12-29T17:52:55.386Z,14.13
2017-12-29T17:55:22.401Z,13.35
2017-12-29T17:57:49.299Z,11.45
2017-12-29T18:00:16.977Z,10.43
2017-12-29T18:02:43.895Z,10.23
2017-12-29T18:05:14.675Z,12.25
2017-12-29T18:07:44.997Z,14.80
2017-12-29T18:10:11.958Z,15.10
2017-12-29T18:12:38.908Z,13.15
2017-12-29T18:15:05.810Z,14.30
2017-12-29T18:17:32.755Z,14.05
2017-12-29T18:19:59.641Z,14.30
2017-12-29T18:22:27.642Z,12.40
2017-12-29T18:24:54.610Z,14.23
2017-12-29T18:27:21.549Z,13.07
2017-12-29T18:29:48.526Z,14.10
2017-12-29T18:35:15.698Z,14.85
2017-12-29T18:37:42.559Z,15.02
2017-12-29T18:40:11.371Z,14.60
2017-12-29T18:42:38.432Z,14.75
2017-12-29T18:45:05.539Z,15.65
2017-12-29T18:47:33.219Z,16.85
2017-12-29T18:50:00.202Z,16.75
2017-12-29T18:52:27.122Z,23.52
2017-12-29T18:54:55.297Z,28.90
2017-12-29T18:57:24.031Z,28.77
2017-12-29T18:59:51.122Z,23.67
2017-12-29T19:02:18.086Z,19.10
2017-12-29T19:04:45.134Z,16.65
2017-12-29T19:07:12.074Z,16.20
2017-12-29T19:09:39.214Z,17.80
2017-12-29T19:12:06.894Z,16.05
2017-12-29T19:14:35.367Z,15.75
2017-12-29T19:17:02.275Z,16.45
2017-12-29T19:19:29.186Z,14.45
2017-12-29T19:21:56.264Z,11.02
2017-12-29T19:24:23.181Z,15.50
2017-12-29T19:26:53.122Z,26.92
2017-12-29T19:29:20.122Z,26.37
2017-12-29T19:31:49.839Z,24.20
2017-12-29T19:34:16.887Z,19.45
2017-12-29T19:36:43.773Z,16.95
2017-12-29T19:39:10.678Z,15.95
2017-12-29T19:45:03.518Z,15.20
2017-12-29T19:51:32.655Z,15.48
2017-12-29T19:54:02.298Z,16.62
2017-12-29T19:56:30.161Z,19.77
2017-12-29T19:58:58.908Z,16.60
2017-12-29T20:01:26.870Z,15.85
2017-12-29T20:12:03.579Z,15.73
2017-12-29T20:23:39.908Z,12.25
2017-12-29T20:26:06.842Z,13.20
2017-12-29T20:34:55.893Z,15.77
2017-12-29T20:37:24.238Z,15.27
2017-12-29T20:39:56.231Z,14.02
2017-12-29T20:42:26.151Z,15.27
2017-12-29T20:44:53.594Z,15.23
2017-12-29T20:47:21.306Z,14.65
2017-12-29T20:49:48.218Z,12.40
2017-12-29T20:55:31.583Z,13.57
2017-12-29T21:12:46.152Z,12.82
2017-12-29T21:18:29.920Z,14.43
2017-12-29T21:27:03.607Z,9.95
2017-12-29T21:29:36.540Z,10.10
2017-12-29T21:34:42.986Z,10.80
2017-12-29T21:40:06.857Z,11.75
2017-12-29T21:42:39.254Z,11.05
2017-12-29T21:45:08.569Z,11.23
2017-12-29T21:47:38.622Z,12.10
2017-12-29T21:50:05.653Z,12.95
2017-12-29T21:52:33.347Z,15.52
2017-12-29T21:55:01.107Z,13.80
2017-12-29T21:57:28.339Z,13.82
2017-12-29T22:00:01.219Z,14.30
2017-12-29T22:02:30.103Z,14.10
2017-12-29T22:04:58.302Z,13.93
2017-12-29T22:07:25.314Z,20.48
2017-12-29T22:09:53.027Z,21.85
2017-12-29T22:12:24.064Z,21.80
2017-12-29T22:14:52.446Z,20.80
2017-12-29T22:17:19.354Z,21.90
2017-12-29T22:19:47.806Z,21.50
2017-12-29T22:22:16.483Z,22.25
2017-12-29T22:24:45.954Z,20.65
2017-12-29T22:27:14.387Z,19.37
2017-12-29T22:29:42.234Z,17.50
2017-12-29T22:32:10.279Z,17.12
2017-12-29T22:34:40.896Z,17.85
2017-12-29T22:37:09.196Z,16.37
2017-12-29T22:42:12.680Z,14.93
2017-12-29T23:11:23.432Z,20.88
2017-12-29T23:14:01.385Z,22.40
2017-12-29T23:17:13.141Z,20.30
2017-12-29T23:19:40.082Z,21.27
2017-12-29T23:22:07.021Z,21.20
2017-12-29T23:24:45.370Z,19.02
2017-12-29T23:27:13.262Z,14.80
2017-12-29T23:29:47.626Z,16.52
2017-12-29T23:32:16.773Z,13.20
2017-12-29T23:34:43.667Z,15.30
2017-12-29T23:37:10.531Z,13.60
2017-12-29T23:39:37.450Z,12.20
2017-12-29T23:42:04.389Z,12.52
2017-12-29T23:45:04.003Z,11.20
2017-12-29T23:47:36.482Z,10.85
2017-12-29T23:50:03.465Z,11.68
2017-12-29T23:55:42.103Z,11.98
2017-12-29T23:58:09.017Z,13.88
